Munising, MI

4:54 AM EDT on August 30, 2015 (GMT -0400)
RAWS | | Change Station
CLOSE
Current Station
Personal Weather Station
Location: Munising, MI
Elevation: 771 ft
Nearby Weather Stations

Elev 771 ft 46.43 °N, 86.62 °W | Updated 55 minutes ago

Overcast
Overcast
61 °F
Feels Like 61 °F
N
3
Wind Variable Wind from SSE
Gusts 8.0 mph

Today
High -- | Low -- °F
--% Chance of Precip.
Yesterday
High -- | Low -- °F
Precip. -- in
7:03 AM 8:29 PM
Waxing Gibbous, 99% visible
Pressure 30.02 in
Visibility 2.5 miles
Clouds Overcast 200 ft
Dew Point 57 °F
Humidity 88%
Rainfall in
Snow Depth Not available.
UV 0 out of 12
Pollen 9.00 out of 12
Air Quality Not available.
Flu Activity Not available.
METAR KSAW 300837Z AUTO 22003KT 2 1/2SM BR OVC002 15/14 A3002 RMK AO2 T01480141
Pressure 30.02 in
Visibility 2.5 miles
Clouds Overcast 200 ft
Dew Point 57 °F
Humidity 88%
Rainfall in
Snow Depth Not available.
UV 0 out of 12
Pollen 9.00 out of 12
Air Quality Not available.
Flu Activity Not available.
METAR KSAW 300837Z AUTO 22003KT 2 1/2SM BR OVC002 15/14 A3002 RMK AO2 T01480141

10-Day Weather Forecast

×

Almanac

Astronomy

Aug. 30, 2015 Rise Set
Actual Time
Civil Twilight
Nautical Twilight
Astronomical Twilight
Moon
Length of Visible Light
Length of Day
Tomorrow will be .
, % of the Moon is Illuminated

Today's Extremes

State Highs State Lows

Community

WunderPhotos

Upload Photos

1,850,909 photos uploaded!

WunderBlogs® & News

Nearby

Air Quality

  Air Quality AQ Index Pollutant
Not available.

Snow Depth

Station Depth Elevation

Earthquake Activity

City Distance Mag. Time & Date
Minimum magnitude displayed is 2.5.

Coastal Water Temperatures

Place Temperature

Stations

Nearby Weather Stations

Station Location Temp. Windchill Dew Point Humidity Wind Precip. Elev Updated Type